createdAt,value
2023-03-25T00:00:57.775Z,100031.19
2023-03-25T00:03:26.358Z,100039.38
2023-03-25T00:05:54.321Z,100027.22
2023-03-25T00:08:22.226Z,100022.47
2023-03-25T00:10:54.806Z,100017.69
2023-03-25T00:13:23.573Z,100019.00
2023-03-25T00:15:53.382Z,100013.38
2023-03-25T00:18:22.753Z,100003.44
2023-03-25T00:20:51.317Z,100015.25
2023-03-25T00:23:20.268Z,100023.47
2023-03-25T00:25:48.830Z,100000.69
2023-03-25T00:28:18.231Z,100006.19
2023-03-25T00:30:46.570Z,100002.59
2023-03-25T00:33:18.089Z,100005.31
2023-03-25T00:35:45.975Z,100002.72
2023-03-25T00:38:13.715Z,100003.59
2023-03-25T00:40:42.298Z,100000.84
2023-03-25T00:43:11.860Z,99999.84
2023-03-25T00:45:41.168Z,100002.59
2023-03-25T00:48:08.937Z,99992.78
2023-03-25T00:50:36.728Z,99998.28
2023-03-25T00:53:04.535Z,99990.06
2023-03-25T00:55:32.780Z,99996.59
2023-03-25T00:58:00.580Z,99994.84
2023-03-25T01:00:28.405Z,99999.31
2023-03-25T01:02:58.432Z,100002.72
2023-03-25T01:05:26.446Z,99996.59
2023-03-25T01:07:55.482Z,100007.53
2023-03-25T01:10:23.720Z,99989.19
2023-03-25T01:12:51.765Z,99994.00
2023-03-25T01:15:19.632Z,100003.06
2023-03-25T01:17:48.210Z,99987.66
2023-03-25T01:20:17.662Z,99994.84
2023-03-25T01:22:46.171Z,99993.28
2023-03-25T01:25:13.953Z,99991.56
2023-03-25T01:27:41.772Z,99986.25
2023-03-25T01:30:11.015Z,99987.09
2023-03-25T01:32:38.786Z,99996.50
2023-03-25T01:35:07.626Z,99995.66
2023-03-25T01:37:36.930Z,99993.78
2023-03-25T01:40:07.843Z,99996.66
2023-03-25T01:42:36.055Z,99993.06
2023-03-25T01:45:29.989Z,99988.75
2023-03-25T01:48:06.625Z,99991.50
2023-03-25T01:50:36.144Z,99985.00
2023-03-25T01:53:07.455Z,99975.94
2023-03-25T01:55:36.739Z,99971.63
2023-03-25T01:58:11.957Z,99984.28
2023-03-25T02:00:41.228Z,99969.06
2023-03-25T02:03:10.253Z,99980.16
2023-03-25T02:05:43.706Z,99982.75
2023-03-25T02:08:15.877Z,99974.69
2023-03-25T02:10:46.872Z,99979.47
2023-03-25T02:13:16.911Z,99975.72
2023-03-25T02:16:03.447Z,99965.47
2023-03-25T02:18:43.782Z,99972.97
2023-03-25T02:21:55.618Z,99975.00
2023-03-25T02:25:16.072Z,99988.31
2023-03-25T02:28:03.157Z,99982.50
2023-03-25T02:30:52.315Z,99986.97
2023-03-25T02:33:44.282Z,99982.66
2023-03-25T02:36:57.583Z,99991.03
2023-03-25T02:39:33.972Z,99988.47
2023-03-25T02:42:10.354Z,99988.47
2023-03-25T02:44:42.653Z,99967.56
2023-03-25T02:47:19.464Z,99980.53
2023-03-25T02:49:53.562Z,99987.03
2023-03-25T02:52:26.316Z,99980.69
2023-03-25T02:55:01.748Z,99988.22
2023-03-25T02:57:35.705Z,99978.16
2023-03-25T03:00:10.220Z,99983.63
2023-03-25T03:02:40.581Z,99986.50
2023-03-25T03:05:23.406Z,99972.66
2023-03-25T03:07:56.364Z,99974.84
2023-03-25T03:10:33.599Z,99975.72
2023-03-25T03:13:11.554Z,99971.25
2023-03-25T03:15:47.434Z,99964.06
2023-03-25T03:18:27.116Z,99971.41
2023-03-25T03:21:06.822Z,99968.81
2023-03-25T03:23:40.948Z,99958.06
2023-03-25T03:26:18.666Z,99961.66
2023-03-25T03:28:50.459Z,99969.16
2023-03-25T03:31:48.469Z,99975.47
2023-03-25T03:34:18.370Z,99970.31
2023-03-25T03:36:51.137Z,99973.03
2023-03-25T03:39:24.938Z,99980.41
2023-03-25T03:41:59.199Z,99972.03
2023-03-25T03:44:31.548Z,99968.59
2023-03-25T03:47:03.120Z,99973.19
2023-03-25T03:49:38.302Z,99977.66
2023-03-25T03:52:11.482Z,99971.31
2023-03-25T03:54:46.352Z,99975.78
2023-03-25T03:57:20.936Z,99964.13
2023-03-25T03:59:58.672Z,99978.00
2023-03-25T04:02:34.584Z,99975.25
2023-03-25T04:05:02.940Z,99981.00
2023-03-25T04:07:39.111Z,99975.53
2023-03-25T04:10:14.972Z,99976.53
2023-03-25T04:12:47.109Z,99963.00
2023-03-25T04:15:15.927Z,99963.34
2023-03-25T04:17:44.122Z,99961.47
2023-03-25T04:20:16.026Z,99965.88
2023-03-25T04:22:45.386Z,99956.28
2023-03-25T04:25:14.737Z,99971.69
2023-03-25T04:27:49.271Z,99972.69
2023-03-25T04:30:19.117Z,99978.16
2023-03-25T04:32:48.091Z,99979.03
2023-03-25T04:35:16.903Z,99968.09
2023-03-25T04:37:46.065Z,99969.09
2023-03-25T04:40:16.294Z,99974.56
2023-03-25T04:42:46.524Z,99978.16
2023-03-25T04:45:16.747Z,99975.59
2023-03-25T04:47:47.059Z,99975.44
2023-03-25T04:50:22.156Z,99967.22
2023-03-25T04:52:51.103Z,99966.66
2023-03-25T04:55:19.586Z,99973.00
2023-03-25T04:57:50.745Z,99964.66
2023-03-25T05:00:22.189Z,99967.53
2023-03-25T05:02:51.740Z,99970.13
2023-03-25T05:05:21.809Z,99973.88
2023-03-25T05:07:51.650Z,99965.66
2023-03-25T05:10:21.469Z,99965.81
2023-03-25T05:12:50.983Z,99972.13
2023-03-25T05:15:19.682Z,99971.47
2023-03-25T05:17:47.513Z,99967.00
2023-03-25T05:20:16.420Z,99973.34
2023-03-25T05:22:45.812Z,99980.81
2023-03-25T05:25:13.736Z,99977.22
2023-03-25T05:27:41.698Z,99989.03
2023-03-25T05:30:11.803Z,99980.97
2023-03-25T05:32:41.206Z,99983.00
2023-03-25T05:35:10.416Z,99983.00
2023-03-25T05:37:38.964Z,99986.06
2023-03-25T05:40:15.156Z,100000.59
2023-03-25T05:42:47.158Z,99990.09
2023-03-25T05:45:17.016Z,99999.16
2023-03-25T05:47:45.041Z,99983.91
2023-03-25T05:50:14.490Z,99993.97
2023-03-25T05:52:42.663Z,99988.69
2023-03-25T05:55:15.902Z,99990.41
2023-03-25T05:57:43.902Z,99997.75
2023-03-25T06:00:13.845Z,99994.16
2023-03-25T06:02:44.127Z,99999.63
2023-03-25T06:05:14.302Z,99988.69
2023-03-25T06:07:43.701Z,99996.91
2023-03-25T06:10:12.145Z,99988.69
2023-03-25T06:12:40.635Z,99996.91
2023-03-25T06:15:10.456Z,100002.19
2023-03-25T06:17:39.434Z,99993.44
2023-03-25T06:20:12.721Z,99993.31
2023-03-25T06:22:40.708Z,99987.97
2023-03-25T06:25:09.817Z,99989.00
2023-03-25T06:27:40.323Z,99989.13
2023-03-25T06:30:09.972Z,99991.88
2023-03-25T06:32:37.932Z,99990.16
2023-03-25T06:35:09.586Z,99992.88
2023-03-25T06:37:38.218Z,99994.06
2023-03-25T06:40:12.937Z,99996.81
2023-03-25T06:42:41.688Z,100005.16
2023-03-25T06:45:28.129Z,100006.31
2023-03-25T06:48:07.123Z,100011.78
2023-03-25T06:50:36.356Z,100008.19
2023-03-25T06:53:04.522Z,100021.13
2023-03-25T06:55:32.336Z,100009.38
2023-03-25T06:58:00.363Z,100013.97
2023-03-25T07:00:28.509Z,100012.25
2023-03-25T07:02:58.400Z,100012.25
2023-03-25T07:05:26.549Z,100016.00
2023-03-25T07:07:55.822Z,100014.13
2023-03-25T07:10:23.799Z,100018.72
2023-03-25T07:12:51.757Z,100019.72
2023-03-25T07:15:20.145Z,100019.72
2023-03-25T07:18:31.469Z,100011.69
2023-03-25T07:21:00.331Z,100017.28
2023-03-25T07:23:30.011Z,100006.94
2023-03-25T07:25:57.980Z,100015.13
2023-03-25T07:28:25.868Z,100011.38
2023-03-25T07:30:53.710Z,100020.44
2023-03-25T07:33:21.477Z,100016.72
2023-03-25T07:35:49.506Z,100016.53
2023-03-25T07:38:17.528Z,100017.38
2023-03-25T07:40:49.889Z,100018.25
2023-03-25T07:43:18.130Z,100024.41
2023-03-25T07:46:07.277Z,100033.41
2023-03-25T07:48:36.757Z,100033.09
2023-03-25T07:51:05.329Z,100021.31
2023-03-25T07:53:33.250Z,100025.06
2023-03-25T07:56:02.407Z,100027.78
2023-03-25T07:58:30.232Z,100022.31
2023-03-25T08:00:58.227Z,100037.84
2023-03-25T08:03:27.976Z,100043.31
2023-03-25T08:05:56.528Z,100033.41
2023-03-25T08:08:24.442Z,100039.88
2023-03-25T08:10:52.693Z,100037.13
2023-03-25T08:13:21.851Z,100058.00
2023-03-25T08:15:50.220Z,100042.59
2023-03-25T08:18:18.309Z,100050.81
2023-03-25T08:20:46.066Z,100057.13
2023-03-25T08:23:19.593Z,100055.28
2023-03-25T08:25:50.431Z,100046.91
2023-03-25T08:28:23.313Z,100053.25
2023-03-25T08:30:55.458Z,100062.31
2023-03-25T08:33:27.043Z,100066.91
2023-03-25T08:35:57.874Z,100060.28
2023-03-25T08:38:31.890Z,100051.06
2023-03-25T08:41:00.958Z,100063.88
2023-03-25T08:43:28.713Z,100066.47
2023-03-25T08:45:58.043Z,100065.31
2023-03-25T08:48:26.024Z,100069.91
2023-03-25T08:50:54.376Z,100065.31
2023-03-25T08:53:22.220Z,100060.69
2023-03-25T08:55:54.768Z,100067.91
2023-03-25T08:58:23.430Z,100069.91
2023-03-25T09:00:54.536Z,100061.41
2023-03-25T09:03:24.688Z,100063.09
2023-03-25T09:05:53.107Z,100058.50
2023-03-25T09:08:21.900Z,100063.09
2023-03-25T09:10:50.268Z,100058.34
2023-03-25T09:13:18.100Z,100060.94
2023-03-25T09:15:47.050Z,100060.66
2023-03-25T09:18:15.089Z,100063.22
2023-03-25T09:20:47.615Z,100061.19
2023-03-25T09:23:15.633Z,100067.81
2023-03-25T09:25:44.229Z,100065.50
2023-03-25T09:28:12.092Z,100056.31
2023-03-25T09:30:40.044Z,100057.00
2023-03-25T09:33:07.836Z,100058.72
2023-03-25T09:35:35.679Z,100031.22
2023-03-25T09:38:05.758Z,100030.06
2023-03-25T09:40:33.519Z,100052.81
2023-03-25T09:43:09.231Z,100068.75
2023-03-25T09:45:40.982Z,100059.84
2023-03-25T09:48:24.349Z,100064.13
2023-03-25T09:50:52.256Z,100043.44
2023-03-25T09:53:30.305Z,100065.84
2023-03-25T09:55:59.369Z,100063.25
2023-03-25T09:58:40.005Z,100048.28
2023-03-25T10:01:33.081Z,100069.31
2023-03-25T10:04:21.489Z,100066.72
2023-03-25T10:06:58.139Z,100073.91
2023-03-25T10:09:48.214Z,100063.69
2023-03-25T10:12:32.707Z,100071.91
2023-03-25T10:15:11.623Z,100072.56
2023-03-25T10:17:54.381Z,100078.06
2023-03-25T10:20:35.450Z,100093.78
2023-03-25T10:23:13.873Z,100078.06
2023-03-25T10:25:47.840Z,100074.16
2023-03-25T10:28:20.756Z,100091.31
2023-03-25T10:30:51.242Z,100081.91
2023-03-25T10:33:28.865Z,100082.09
2023-03-25T10:35:59.477Z,100084.22
2023-03-25T10:38:30.193Z,100089.41
2023-03-25T10:41:11.817Z,100091.50
2023-03-25T10:43:41.942Z,100092.38
2023-03-25T10:46:21.209Z,100095.66
2023-03-25T10:48:50.018Z,100096.69
2023-03-25T10:51:20.165Z,100097.38
2023-03-25T10:53:49.617Z,100082.69
2023-03-25T10:56:23.632Z,100080.66
2023-03-25T10:58:54.681Z,100087.84
2023-03-25T11:01:29.458Z,100085.84
2023-03-25T11:04:00.478Z,100089.25
2023-03-25T11:06:31.755Z,100075.25
2023-03-25T11:09:13.562Z,100072.38
2023-03-25T11:11:43.551Z,100079.25
2023-03-25T11:14:12.106Z,100075.50
2023-03-25T11:16:44.807Z,100075.03
2023-03-25T11:19:21.295Z,100066.50
2023-03-25T11:21:55.866Z,100056.09
2023-03-25T11:24:25.538Z,100076.66
2023-03-25T11:26:54.969Z,100057.91
2023-03-25T11:29:25.947Z,100059.44
2023-03-25T11:31:58.999Z,100070.81
2023-03-25T11:34:28.658Z,100050.78
2023-03-25T11:37:01.739Z,100074.06
2023-03-25T11:39:34.325Z,100065.72
2023-03-25T11:42:14.957Z,100083.72
2023-03-25T11:44:43.098Z,100068.00
2023-03-25T11:47:12.504Z,100088.72
2023-03-25T11:49:42.254Z,100093.88
2023-03-25T11:52:15.834Z,100087.22
2023-03-25T11:54:44.510Z,100095.44
2023-03-25T11:57:17.404Z,100099.59
2023-03-25T11:59:46.609Z,100108.66
2023-03-25T12:02:24.911Z,100105.78
2023-03-25T12:04:59.332Z,100123.38
2023-03-25T12:07:27.150Z,100133.63
2023-03-25T12:09:56.466Z,100131.06
2023-03-25T12:12:38.189Z,100130.34
2023-03-25T12:15:20.919Z,100120.72
2023-03-25T12:18:09.157Z,100136.94
2023-03-25T12:20:50.073Z,100129.88
2023-03-25T12:23:29.672Z,100117.38
2023-03-25T12:26:06.683Z,100099.38
2023-03-25T12:29:15.211Z,100108.50
2023-03-25T12:31:58.405Z,100099.13
2023-03-25T12:34:39.721Z,100092.78
2023-03-25T12:37:20.492Z,100094.53
2023-03-25T12:40:07.551Z,100085.28
2023-03-25T12:42:44.966Z,100073.31
2023-03-25T12:45:45.033Z,100074.34
2023-03-25T12:48:25.551Z,100073.00
2023-03-25T12:51:01.337Z,100072.53
2023-03-25T12:53:45.988Z,100074.63
2023-03-25T12:56:36.056Z,100077.22
2023-03-25T12:59:21.442Z,100086.97
2023-03-25T13:01:59.955Z,100086.69
2023-03-25T13:05:05.091Z,100082.38
2023-03-25T13:07:37.714Z,100097.78
2023-03-25T13:10:15.326Z,100110.78
2023-03-25T13:12:49.684Z,100091.78
2023-03-25T13:15:26.862Z,100102.03
2023-03-25T13:18:01.141Z,100110.53
2023-03-25T13:20:32.995Z,100122.00
2023-03-25T13:23:17.715Z,100105.13
2023-03-25T13:25:51.962Z,100142.09
2023-03-25T13:28:25.542Z,100158.13
2023-03-25T13:30:55.292Z,100162.31
2023-03-25T13:33:29.080Z,100184.72
2023-03-25T13:36:03.848Z,100165.31
2023-03-25T13:38:35.464Z,100174.44
2023-03-25T13:41:12.953Z,100157.59
2023-03-25T13:43:52.004Z,100144.81
2023-03-25T13:46:24.163Z,100152.78
2023-03-25T13:48:57.932Z,100124.41
2023-03-25T13:51:26.326Z,100133.97
2023-03-25T13:53:58.692Z,100136.97
2023-03-25T13:57:08.672Z,100116.44
2023-03-25T14:00:10.278Z,100128.53
2023-03-25T14:02:55.662Z,100121.19
2023-03-25T14:05:54.511Z,100116.00
2023-03-25T14:08:36.858Z,100124.63
2023-03-25T14:11:21.062Z,100127.19
2023-03-25T14:13:54.204Z,100104.00
2023-03-25T14:16:25.610Z,100127.63
2023-03-25T14:18:57.618Z,100116.34
2023-03-25T14:21:33.871Z,100126.28
2023-03-25T14:24:04.146Z,100126.28
2023-03-25T14:26:34.019Z,100128.72
2023-03-25T14:29:09.018Z,100126.00
2023-03-25T14:31:37.467Z,100130.59
2023-03-25T14:34:26.686Z,100117.69
2023-03-25T14:37:30.791Z,100120.25
2023-03-25T14:40:02.067Z,100117.19
2023-03-25T14:42:40.820Z,100117.78
2023-03-25T14:45:45.801Z,100114.88
2023-03-25T14:48:44.971Z,100122.53
2023-03-25T14:51:43.522Z,100103.75
2023-03-25T14:54:34.053Z,100114.03
2023-03-25T14:57:07.912Z,100108.38
2023-03-25T14:59:39.677Z,100114.03
2023-03-25T15:02:16.378Z,100113.47
2023-03-25T15:04:46.657Z,100127.59
2023-03-25T15:07:20.358Z,100124.41
2023-03-25T15:09:53.733Z,100132.09
2023-03-25T15:12:26.236Z,100115.97
2023-03-25T15:14:57.978Z,100120.16
2023-03-25T15:17:45.578Z,100136.16
2023-03-25T15:20:36.014Z,100113.72
2023-03-25T15:23:33.212Z,100148.16
2023-03-25T15:26:04.806Z,100146.88
2023-03-25T15:28:46.487Z,100134.19
2023-03-25T15:31:38.394Z,100136.41
2023-03-25T15:34:21.363Z,100143.16
2023-03-25T15:37:05.251Z,100138.16
2023-03-25T15:39:48.704Z,100134.69
2023-03-25T15:42:39.951Z,100129.53
2023-03-25T15:45:45.211Z,100134.28
2023-03-25T15:48:32.134Z,100133.28
2023-03-25T15:51:28.774Z,100132.28
2023-03-25T15:54:16.999Z,100125.78
2023-03-25T15:56:47.601Z,100123.91
2023-03-25T15:59:30.330Z,100120.00
2023-03-25T16:02:03.745Z,100122.91
2023-03-25T16:04:39.334Z,100124.34
2023-03-25T16:07:10.741Z,100138.69
2023-03-25T16:09:46.107Z,100143.16
2023-03-25T16:12:20.918Z,100138.25
2023-03-25T16:14:50.532Z,100130.06
2023-03-25T16:17:20.452Z,100135.38
2023-03-25T16:19:52.148Z,100132.50
2023-03-25T16:22:26.565Z,100125.84
2023-03-25T16:24:57.300Z,100127.59
2023-03-25T16:27:27.654Z,100138.38
2023-03-25T16:29:57.253Z,100137.38
2023-03-25T16:32:27.123Z,100144.56
2023-03-25T16:34:54.869Z,100129.88
2023-03-25T16:37:25.298Z,100137.06
2023-03-25T16:39:54.451Z,100124.41
2023-03-25T16:42:27.900Z,100135.03
2023-03-25T16:44:57.226Z,100158.94
2023-03-25T16:47:25.585Z,100158.06
2023-03-25T16:49:56.867Z,100150.03
2023-03-25T16:52:28.765Z,100146.44
2023-03-25T16:55:30.062Z,100154.66
2023-03-25T16:58:00.729Z,100161.72
2023-03-25T17:00:40.530Z,100169.06
2023-03-25T17:03:15.028Z,100182.00
2023-03-25T17:06:00.972Z,100174.97
2023-03-25T17:08:29.518Z,100173.41
2023-03-25T17:10:59.485Z,100174.22
2023-03-25T17:13:31.503Z,100175.28
2023-03-25T17:16:01.270Z,100170.94
2023-03-25T17:18:32.519Z,100173.53
2023-03-25T17:21:01.706Z,100168.22
2023-03-25T17:23:36.575Z,100179.88
2023-03-25T17:26:08.140Z,100207.50
2023-03-25T17:28:39.197Z,100204.75
2023-03-25T17:31:21.829Z,100202.91
2023-03-25T17:33:50.828Z,100207.09
2023-03-25T17:36:20.542Z,100202.16
2023-03-25T17:38:53.493Z,100209.66
2023-03-25T17:41:21.807Z,100209.41
2023-03-25T17:43:51.590Z,100209.38
2023-03-25T17:46:23.845Z,100212.84
2023-03-25T17:48:53.529Z,100211.25
2023-03-25T17:51:22.395Z,100223.03
2023-03-25T17:53:50.630Z,100230.69
2023-03-25T17:56:21.514Z,100240.75
2023-03-25T17:58:49.383Z,100238.31
2023-03-25T18:01:17.185Z,100238.44
2023-03-25T18:03:47.540Z,100242.03
2023-03-25T18:06:16.570Z,100237.75
2023-03-25T18:08:44.421Z,100244.34
2023-03-25T18:11:12.837Z,100239.03
2023-03-25T18:13:45.801Z,100254.56
2023-03-25T18:16:13.743Z,100256.00
2023-03-25T18:18:41.748Z,100253.41
2023-03-25T18:21:13.247Z,100253.84
2023-03-25T18:23:44.559Z,100264.94
2023-03-25T18:26:19.818Z,100262.19
2023-03-25T18:28:50.136Z,100255.16
2023-03-25T18:31:18.694Z,100266.06
2023-03-25T18:33:48.343Z,100264.22
2023-03-25T18:36:18.911Z,100260.47
2023-03-25T18:38:47.761Z,100270.66
2023-03-25T18:41:17.345Z,100281.47
2023-03-25T18:43:46.141Z,100281.59
2023-03-25T18:46:16.979Z,100286.06
2023-03-25T18:48:45.445Z,100287.22
2023-03-25T18:51:14.513Z,100287.22
2023-03-25T18:53:43.725Z,100294.53
2023-03-25T18:56:12.060Z,100295.53
2023-03-25T18:58:40.063Z,100291.94
2023-03-25T19:01:09.952Z,100291.94
2023-03-25T19:03:39.539Z,100282.00
2023-03-25T19:06:10.626Z,100294.53
2023-03-25T19:08:39.094Z,100289.38
2023-03-25T19:11:19.904Z,100287.34
2023-03-25T19:13:50.358Z,100285.91
2023-03-25T19:16:18.789Z,100284.91
2023-03-25T19:18:47.533Z,100271.25
2023-03-25T19:21:18.160Z,100275.72
2023-03-25T19:23:46.338Z,100271.25
2023-03-25T19:26:16.111Z,100260.16
2023-03-25T19:28:44.050Z,100260.31
2023-03-25T19:31:13.545Z,100258.47
2023-03-25T19:33:41.486Z,100252.13
2023-03-25T19:36:14.819Z,100261.19
2023-03-25T19:38:43.153Z,100266.78
2023-03-25T19:41:12.514Z,100276.84
2023-03-25T19:43:42.272Z,100275.84
2023-03-25T19:46:11.439Z,100271.38
2023-03-25T19:48:39.388Z,100274.41
2023-03-25T19:51:07.518Z,100284.31
2023-03-25T19:53:35.668Z,100277.00
2023-03-25T19:56:05.053Z,100278.00
2023-03-25T19:58:34.940Z,100273.53
2023-03-25T20:01:04.416Z,100273.41
2023-03-25T20:03:33.853Z,100281.72
2023-03-25T20:06:03.456Z,100273.53
2023-03-25T20:08:32.042Z,100271.78
2023-03-25T20:11:01.029Z,100283.59
2023-03-25T20:13:29.180Z,100280.00
2023-03-25T20:15:57.093Z,100284.47
2023-03-25T20:18:26.639Z,100281.59
2023-03-25T20:20:54.696Z,100274.53
2023-03-25T20:23:22.705Z,100277.25
2023-03-25T20:25:52.402Z,100279.00
2023-03-25T20:28:20.633Z,100280.72
2023-03-25T20:30:48.562Z,100275.41
2023-03-25T20:33:16.503Z,100268.06
2023-03-25T20:35:46.418Z,100278.84
2023-03-25T20:38:14.620Z,100284.47
2023-03-25T20:40:44.943Z,100277.13
2023-03-25T20:43:14.810Z,100287.19
2023-03-25T20:45:43.773Z,100288.91
2023-03-25T20:48:12.085Z,100282.44
2023-03-25T20:50:40.320Z,100284.31
2023-03-25T20:53:09.464Z,100295.97
2023-03-25T20:55:37.483Z,100297.84
2023-03-25T20:58:05.920Z,100296.84
2023-03-25T21:00:37.519Z,100308.63
2023-03-25T21:03:06.061Z,100301.44
2023-03-25T21:05:35.355Z,100304.91
2023-03-25T21:08:05.463Z,100304.72
2023-03-25T21:10:35.075Z,100317.41
2023-03-25T21:13:03.029Z,100316.53
2023-03-25T21:15:31.476Z,100317.25
2023-03-25T21:17:59.805Z,100319.13
2023-03-25T21:20:28.828Z,100320.00
2023-03-25T21:22:59.108Z,100305.47
2023-03-25T21:25:35.234Z,100311.66
2023-03-25T21:28:06.854Z,100312.53
2023-03-25T21:30:35.594Z,100313.53
2023-03-25T21:33:03.706Z,100311.78
2023-03-25T21:35:33.834Z,100314.41
2023-03-25T21:38:07.484Z,100313.53
2023-03-25T21:40:39.657Z,100321.88
2023-03-25T21:43:10.770Z,100318.25
2023-03-25T21:45:40.723Z,100325.47
2023-03-25T21:48:20.684Z,100325.47
2023-03-25T21:50:56.628Z,100325.47
2023-03-25T21:53:31.219Z,100322.88
2023-03-25T21:56:03.722Z,100327.47
2023-03-25T21:58:36.395Z,100331.19
2023-03-25T22:01:06.482Z,100333.09
2023-03-25T22:03:39.550Z,100328.47
2023-03-25T22:06:12.196Z,100340.13
2023-03-25T22:08:40.417Z,100339.38
2023-03-25T22:11:10.044Z,100332.94
2023-03-25T22:13:42.842Z,100341.13
2023-03-25T22:16:16.269Z,100347.59
2023-03-25T22:18:49.619Z,100366.72
2023-03-25T22:21:20.940Z,100363.16
2023-03-25T22:23:51.179Z,100374.06
2023-03-25T22:26:20.233Z,100379.69
2023-03-25T22:28:52.007Z,100390.59
2023-03-25T22:31:26.042Z,100392.59
2023-03-25T22:33:58.535Z,100387.13
2023-03-25T22:36:26.513Z,100375.78
2023-03-25T22:38:59.423Z,100387.41
2023-03-25T22:41:28.703Z,100391.13
2023-03-25T22:44:02.575Z,100388.13
2023-03-25T22:46:32.263Z,100381.25
2023-03-25T22:49:00.692Z,100388.41
2023-03-25T22:51:29.061Z,100385.84
2023-03-25T22:53:57.016Z,100381.38
2023-03-25T22:56:30.374Z,100379.50
2023-03-25T22:58:59.749Z,100383.25
2023-03-25T23:01:28.889Z,100380.66
2023-03-25T23:03:59.158Z,100382.38
2023-03-25T23:06:27.945Z,100387.84
2023-03-25T23:08:56.992Z,100381.50
2023-03-25T23:11:26.800Z,100385.97
2023-03-25T23:13:57.514Z,100386.84
2023-03-25T23:16:30.648Z,100394.16
2023-03-25T23:18:59.667Z,100393.31
2023-03-25T23:21:29.723Z,100399.63
2023-03-25T23:23:59.681Z,100394.16
2023-03-25T23:26:29.750Z,100396.91
2023-03-25T23:29:00.434Z,100400.50
2023-03-25T23:31:33.892Z,100390.56
2023-03-25T23:34:04.464Z,100390.56
2023-03-25T23:36:38.312Z,100395.16
2023-03-25T23:39:07.604Z,100393.44
2023-03-25T23:41:36.266Z,100391.56
2023-03-25T23:44:05.688Z,100385.38
2023-03-25T23:46:35.424Z,100387.09
2023-03-25T23:49:03.730Z,100391.84
2023-03-25T23:51:34.838Z,100383.66
2023-03-25T23:54:03.688Z,100397.47
2023-03-25T23:56:32.063Z,100395.72
2023-03-25T23:59:00.563Z,100389.41
